Terminal Aerodrome Forecast
Issued by NWS Corpus Christi, TX

Home | Current Version | Previous Version | Text Only | Print | Product List | Glossary On
Versions: 1 2 3 4 5 6 7 8 9 10 11 12 13 14 15 16 17 18 19
000
FTUS44 KCRP 171743
TAFVCT
TAF
KVCT 171743Z 1718/1818 17015G22KT P6SM SCT018 BKN040
     FM180000 15012KT P6SM SCT040
     FM180200 16008KT P6SM BKN015
     FM180800 19006KT 2SM BR OVC008
     FM181430 21010KT P6SM OVC015
     FM181600 23015KT P6SM BKN035=

USA.gov is the U.S. government's official web portal to all federal, state and local government web resources and services.